Time;durP1;ratioP1;P1;durP2;ratioP2;P2;SDS_P1;SDS_P2;PMS_P1;PMS_P2;Temp;Humidity;BMP_temperature;BMP_pressure;BME280_temperature;BME280_humidity;BME280_pressure;Samples;Min_cycle;Max_cycle;Signal;HPM_P1;HPM_P2
2023/01/13 00:00:34;;;;;;;41.83;5.88;;;8.80;99.90;;;;;;6212584;23;20075;-85
2023/01/13 00:03:00;;;;;;;36.50;5.10;;;8.70;99.90;;;;;;6213143;23;20013;-86
2023/01/13 00:05:26;;;;;;;40.00;5.53;;;8.70;99.90;;;;;;6185102;23;20071;-84
2023/01/13 00:07:52;;;;;;;45.05;5.57;;;8.70;99.90;;;;;;6190238;23;20012;-86
2023/01/13 00:10:17;;;;;;;36.90;5.43;;;8.60;99.90;;;;;;6217458;23;20009;-85
2023/01/13 00:12:43;;;;;;;42.05;6.32;;;8.40;99.90;;;;;;6210054;23;20048;-86
2023/01/13 00:15:10;;;;;;;34.97;6.10;;;8.40;99.90;;;;;;6184593;23;20013;-85
2023/01/13 00:17:35;;;;;;;47.92;6.05;;;8.40;99.90;;;;;;6211677;23;20028;-84
2023/01/13 00:20:01;;;;;;;39.95;5.75;;;8.30;99.90;;;;;;6187957;23;20048;-84
2023/01/13 00:22:27;;;;;;;51.97;6.63;;;8.40;99.90;;;;;;6184949;23;20024;-86
2023/01/13 00:24:52;;;;;;;47.75;6.78;;;8.40;99.90;;;;;;6209343;23;20019;-86
2023/01/13 00:27:18;;;;;;;37.30;5.97;;;8.40;99.90;;;;;;6184553;23;20016;-84
2023/01/13 00:29:44;;;;;;;40.78;6.18;;;8.30;99.90;;;;;;6211957;23;20088;-87
2023/01/13 00:32:09;;;;;;;42.90;6.55;;;8.20;99.90;;;;;;6187956;23;20318;-85
2023/01/13 00:34:35;;;;;;;42.17;6.18;;;8.20;99.90;;;;;;6184710;23;20397;-83
2023/01/13 00:37:01;;;;;;;44.40;6.72;;;8.30;99.90;;;;;;6184732;23;20091;-84
2023/01/13 00:39:26;;;;;;;49.10;7.40;;;8.30;99.90;;;;;;6186122;23;20008;-84
2023/01/13 00:44:36;;;;;;;51.10;6.83;;;8.10;99.90;;;;;;6210529;23;20031;-86
2023/01/13 00:47:02;;;;;;;56.17;7.32;;;8.10;99.90;;;;;;6188199;23;20000;-85
2023/01/13 00:49:28;;;;;;;57.05;7.43;;;8.00;99.90;;;;;;6186830;23;20016;-85
2023/01/13 00:51:53;;;;;;;49.63;7.10;;;8.00;99.90;;;;;;6212633;23;20011;-88
2023/01/13 00:54:19;;;;;;;55.75;7.72;;;8.00;99.90;;;;;;6186820;23;20016;-85
2023/01/13 00:56:44;;;;;;;52.95;7.82;;;8.10;99.90;;;;;;6209939;23;20023;-86
2023/01/13 00:59:11;;;;;;;48.22;7.75;;;7.90;99.90;;;;;;6209088;23;20087;-87
2023/01/13 01:01:37;;;;;;;50.45;7.10;;;8.10;99.90;;;;;;6211059;23;20786;-86
2023/01/13 01:04:03;;;;;;;53.60;7.85;;;7.90;99.90;;;;;;6210306;23;20020;-85
2023/01/13 01:06:29;;;;;;;42.58;7.00;;;7.90;99.90;;;;;;6216754;23;20023;-85
2023/01/13 01:08:56;;;;;;;53.38;7.90;;;8.10;99.90;;;;;;6210869;23;20042;-85
2023/01/13 01:11:27;;;;;;;59.35;8.55;;;7.90;99.90;;;;;;6185857;23;20023;-84
2023/01/13 01:13:54;;;;;;;57.35;7.65;;;8.00;99.90;;;;;;6184958;23;20012;-86
2023/01/13 01:16:22;;;;;;;51.65;7.47;;;7.90;99.90;;;;;;6209117;23;20096;-89
2023/01/13 01:18:49;;;;;;;49.92;7.22;;;7.90;99.90;;;;;;6185295;23;20016;-86
2023/01/13 01:21:16;;;;;;;48.10;7.65;;;7.90;99.90;;;;;;6183405;23;20321;-84
2023/01/13 01:23:48;;;;;;;46.10;6.57;;;7.80;99.90;;;;;;6210124;23;20024;-87
2023/01/13 01:26:18;;;;;;;47.42;7.13;;;7.80;99.90;;;;;;6210680;23;20416;-82
2023/01/13 01:28:45;;;;;;;56.17;8.07;;;7.80;99.90;;;;;;6208572;23;20055;-85
2023/01/13 01:31:25;;;;;;;55.88;8.30;;;7.70;99.90;;;;;;6184618;23;20012;-88
2023/01/13 01:33:53;;;;;;;55.13;7.75;;;7.70;99.90;;;;;;6210258;23;20282;-86
2023/01/13 01:36:20;;;;;;;57.72;7.95;;;7.70;99.90;;;;;;6208923;23;20012;-85
2023/01/13 01:38:47;;;;;;;55.42;8.40;;;7.70;99.90;;;;;;6183852;23;20030;-88
2023/01/13 01:41:22;;;;;;;60.25;7.97;;;7.80;99.90;;;;;;6184512;23;20023;-86
2023/01/13 01:44:03;;;;;;;52.17;7.47;;;7.70;99.90;;;;;;6183737;23;20043;-88
2023/01/13 01:46:41;;;;;;;57.88;7.95;;;7.80;99.90;;;;;;6211290;23;20024;-84
2023/01/13 01:49:20;;;;;;;53.63;7.78;;;7.70;99.90;;;;;;6209342;23;20078;-87
2023/01/13 01:52:02;;;;;;;48.30;7.32;;;7.80;99.90;;;;;;6184324;23;20012;-86
2023/01/13 01:54:41;;;;;;;55.60;7.57;;;7.70;99.90;;;;;;6209411;23;20017;-84
2023/01/13 01:57:10;;;;;;;67.50;7.93;;;7.80;99.90;;;;;;6209625;23;20063;-84
2023/01/13 01:59:37;;;;;;;54.33;7.25;;;7.70;99.90;;;;;;6210165;23;20034;-85
2023/01/13 02:02:03;;;;;;;53.05;7.15;;;7.70;99.90;;;;;;6209551;23;20369;-84
2023/01/13 02:04:33;;;;;;;52.15;8.02;;;7.80;99.90;;;;;;6210864;23;20024;-88
2023/01/13 02:07:00;;;;;;;58.55;8.05;;;7.80;99.90;;;;;;6185681;23;20048;-82
2023/01/13 02:09:26;;;;;;;47.70;7.65;;;7.80;99.90;;;;;;6184704;23;20886;-83
2023/01/13 02:14:37;;;;;;;46.25;7.68;;;7.90;99.90;;;;;;6210963;23;20784;-86
2023/01/13 02:17:42;;;;;;;45.70;6.68;;;7.80;99.90;;;;;;6210530;23;20012;-86
2023/01/13 02:20:39;;;;;;;51.00;6.95;;;7.80;99.90;;;;;;6210666;23;20419;-83
2023/01/13 02:26:34;;;;;;;46.40;7.78;;;7.90;99.90;;;;;;6212201;23;20051;-86
2023/01/13 02:32:16;;;;;;;56.92;7.80;;;7.90;99.90;;;;;;6214478;23;20024;-84
2023/01/13 02:34:50;;;;;;;49.88;7.03;;;7.80;99.90;;;;;;6197898;23;20008;-85
2023/01/13 02:37:30;;;;;;;61.77;7.93;;;7.90;99.90;;;;;;6197662;23;20115;-82
2023/01/13 02:40:24;;;;;;;46.08;7.15;;;7.80;99.90;;;;;;6193852;23;20246;-85
2023/01/13 02:46:13;;;;;;;57.33;8.10;;;7.70;99.90;;;;;;6218077;23;20016;-84
2023/01/13 02:48:40;;;;;;;56.85;7.50;;;7.70;99.90;;;;;;6218504;23;20025;-86
2023/01/13 02:51:13;;;;;;;55.78;6.57;;;7.80;99.90;;;;;;6215877;23;20324;-85
2023/01/13 02:57:10;;;;;;;50.60;7.43;;;7.70;99.90;;;;;;6216447;23;20067;-84
2023/01/13 02:59:38;;;;;;;53.20;7.57;;;7.70;99.90;;;;;;6219518;23;20019;-83
2023/01/13 03:02:06;;;;;;;51.08;7.95;;;7.70;99.90;;;;;;6199335;23;20040;-84
2023/01/13 03:04:57;;;;;;;55.72;7.95;;;7.90;99.90;;;;;;6199901;23;20095;-83
2023/01/13 03:07:48;;;;;;;53.92;7.80;;;8.00;99.90;;;;;;6056596;23;20085;-81
2023/01/13 03:10:54;;;;;;;47.72;7.13;;;8.00;99.90;;;;;;6072328;23;20392;-82
2023/01/13 03:13:43;;;;;;;48.67;8.13;;;7.90;99.90;;;;;;6096998;23;20046;-85
2023/01/13 03:16:46;;;;;;;44.88;6.53;;;8.00;99.90;;;;;;6092577;23;20014;-88
2023/01/13 03:19:20;;;;;;;45.88;6.47;;;8.00;99.90;;;;;;6045808;23;20081;-84
2023/01/13 03:21:55;;;;;;;43.00;6.15;;;7.90;99.90;;;;;;6069837;23;20022;-83
2023/01/13 03:24:35;;;;;;;;;;;7.80;99.90;;;;;;6046802;23;20018;-84
2023/01/13 03:27:11;;;;;;;56.58;6.35;;;7.90;99.90;;;;;;6062187;23;20063;-85
2023/01/13 03:29:51;;;;;;;46.67;7.28;;;8.00;99.90;;;;;;6061714;23;20079;-85
2023/01/13 03:32:24;;;;;;;46.90;5.70;;;7.80;99.90;;;;;;6062160;23;20018;-86
2023/01/13 03:34:53;;;;;;;51.88;6.78;;;7.90;99.90;;;;;;6062548;23;20110;-84
2023/01/13 03:37:25;;;;;;;43.05;6.45;;;8.00;99.90;;;;;;6039211;23;20447;-84
2023/01/13 03:39:58;;;;;;;41.97;5.63;;;7.90;99.90;;;;;;6038567;23;20019;-86
2023/01/13 03:42:26;;;;;;;52.65;6.68;;;8.00;99.90;;;;;;6038680;23;20058;-87
2023/01/13 03:45:10;;;;;;;45.25;6.88;;;8.10;99.90;;;;;;6139391;23;20017;-87
2023/01/13 03:47:48;;;;;;;46.30;6.57;;;8.10;99.90;;;;;;6180247;23;20017;-85
2023/01/13 03:50:25;;;;;;;50.00;7.03;;;8.20;99.90;;;;;;6183161;23;20032;-83
2023/01/13 03:52:57;;;;;;;44.95;6.50;;;8.00;99.90;;;;;;6157598;23;20023;-84
2023/01/13 03:55:38;;;;;;;38.63;5.65;;;8.00;99.90;;;;;;6180312;23;20060;-88
2023/01/13 03:58:24;;;;;;;41.95;6.32;;;8.10;99.90;;;;;;6179384;23;20013;-84
2023/01/13 04:00:57;;;;;;;43.58;6.03;;;8.00;99.90;;;;;;6155562;23;20448;-85
2023/01/13 04:03:46;;;;;;;41.47;6.43;;;8.00;99.90;;;;;;6181520;23;20306;-88
2023/01/13 04:06:15;;;;;;;46.03;6.15;;;8.00;99.90;;;;;;6149990;23;20041;-83
2023/01/13 04:08:48;;;;;;;44.95;6.80;;;7.90;99.90;;;;;;6099537;23;20074;-82
2023/01/13 04:11:21;;;;;;;45.28;6.50;;;7.80;99.90;;;;;;6125043;23;20094;-84
2023/01/13 04:13:48;;;;;;;47.10;7.00;;;7.90;99.90;;;;;;6123862;23;20100;-83
2023/01/13 04:16:14;;;;;;;45.75;7.30;;;7.80;99.90;;;;;;6099997;23;20041;-84
2023/01/13 04:18:40;;;;;;;44.38;7.13;;;7.80;99.90;;;;;;6125161;23;20357;-87
2023/01/13 04:21:06;;;;;;;56.85;6.97;;;7.80;99.90;;;;;;6101178;23;20108;-88
2023/01/13 04:23:32;;;;;;;38.83;6.32;;;7.60;99.90;;;;;;6101259;23;20120;-82
2023/01/13 04:25:58;;;;;;;48.17;7.68;;;7.80;99.90;;;;;;6124011;23;20021;-85
2023/01/13 04:28:25;;;;;;;43.85;6.53;;;7.70;99.90;;;;;;6155337;23;20018;-83
2023/01/13 04:30:51;;;;;;;44.28;5.80;;;7.70;99.90;;;;;;6149061;23;20020;-84
2023/01/13 04:33:18;;;;;;;46.75;6.72;;;7.80;99.90;;;;;;6149123;23;20021;-85
2023/01/13 04:35:45;;;;;;;47.60;7.00;;;7.90;99.90;;;;;;6149830;23;20009;-85
2023/01/13 04:38:16;;;;;;;45.88;6.78;;;7.90;99.90;;;;;;6124470;23;20088;-85
2023/01/13 04:41:01;;;;;;;47.55;6.82;;;7.90;99.90;;;;;;6124898;23;20024;-85
2023/01/13 04:43:27;;;;;;;;;;;7.90;99.90;;;;;;6150302;23;20679;-83
2023/01/13 04:45:52;;;;;;;40.42;5.85;;;7.90;99.90;;;;;;6186977;23;20351;-87
2023/01/13 04:48:18;;;;;;;44.15;7.05;;;8.10;99.90;;;;;;6214966;23;20057;-89
2023/01/13 04:50:44;;;;;;;44.95;6.22;;;7.90;99.90;;;;;;6186584;23;20009;-88
2023/01/13 04:53:10;;;;;;;47.25;7.78;;;8.00;99.90;;;;;;6184938;23;20158;-85
2023/01/13 04:55:35;;;;;;;43.88;6.10;;;7.80;99.90;;;;;;6185710;23;20618;-82
2023/01/13 04:58:07;;;;;;;48.70;7.00;;;8.20;99.90;;;;;;6183929;23;20051;-83
2023/01/13 05:00:33;;;;;;;44.67;6.25;;;8.00;99.90;;;;;;6186511;23;20535;-86
2023/01/13 05:02:58;;;;;;;46.58;6.78;;;8.10;99.90;;;;;;6214242;23;20028;-86
2023/01/13 05:05:26;;;;;;;45.88;6.88;;;8.10;99.90;;;;;;6211893;23;20016;-86
2023/01/13 05:07:52;;;;;;;49.55;6.40;;;8.20;99.90;;;;;;6185467;23;20113;-88
2023/01/13 05:10:17;;;;;;;46.97;6.78;;;8.10;99.90;;;;;;6209535;23;20012;-89
2023/01/13 05:18:28;;;;;;;40.30;6.38;;;8.20;99.90;;;;;;6118912;23;19991;-85
2023/01/13 05:20:53;;;;;;;48.22;6.15;;;8.20;99.90;;;;;;6095989;23;20022;-83
2023/01/13 05:26:04;;;;;;;52.75;6.25;;;8.30;99.90;;;;;;6094464;23;20036;-87
2023/01/13 05:28:31;;;;;;;33.60;5.25;;;8.20;99.90;;;;;;6096117;23;20350;-84
2023/01/13 05:30:56;;;;;;;40.15;6.20;;;8.30;99.90;;;;;;6096825;23;20053;-87
2023/01/13 05:33:22;;;;;;;38.75;5.90;;;8.40;99.90;;;;;;6095166;23;20037;-86
2023/01/13 05:35:48;;;;;;;34.72;5.75;;;8.40;99.90;;;;;;6096560;23;20719;-84
2023/01/13 05:38:15;;;;;;;40.55;5.88;;;8.30;99.90;;;;;;6094882;23;20058;-83
2023/01/13 05:43:26;;;;;;;31.80;5.22;;;8.30;99.90;;;;;;6119082;23;20026;-85
2023/01/13 05:46:08;;;;;;;33.28;5.00;;;8.30;99.90;;;;;;6118363;23;20014;-86
2023/01/13 05:48:39;;;;;;;35.00;5.28;;;8.30;99.90;;;;;;6094450;23;20058;-86
2023/01/13 05:51:07;;;;;;;33.17;5.78;;;8.30;99.90;;;;;;6101932;23;20461;-86
2023/01/13 05:53:33;;;;;;;30.40;5.07;;;8.40;99.90;;;;;;6209547;23;20008;-86
2023/01/13 05:55:59;;;;;;;34.38;4.72;;;8.30;99.90;;;;;;6184909;23;20091;-88
2023/01/13 05:58:26;;;;;;;33.50;5.13;;;8.40;99.90;;;;;;6184387;23;20458;-83
2023/01/13 06:00:52;;;;;;;33.83;5.90;;;8.30;99.90;;;;;;6185129;23;20023;-86
2023/01/13 06:03:19;;;;;;;30.23;5.22;;;8.30;99.90;;;;;;6184569;23;20009;-83
2023/01/13 06:05:46;;;;;;;32.88;5.72;;;8.30;99.90;;;;;;6180997;23;20054;-87
2023/01/13 06:08:11;;;;;;;38.97;5.47;;;8.30;99.90;;;;;;6184164;23;20516;-87
2023/01/13 06:11:16;;;;;;;34.83;5.45;;;8.30;99.90;;;;;;6209276;23;20098;-85
2023/01/13 06:13:41;;;;;;;37.42;5.25;;;8.20;99.90;;;;;;6183753;23;20297;-83
2023/01/13 06:16:08;;;;;;;38.58;5.55;;;8.30;99.90;;;;;;6211199;23;20013;-84
2023/01/13 06:18:33;;;;;;;34.78;5.85;;;8.30;99.90;;;;;;6184756;23;20020;-86
2023/01/13 06:20:59;;;;;;;37.95;5.70;;;8.30;99.90;;;;;;6185253;23;20336;-86
2023/01/13 06:23:25;;;;;;;34.42;5.57;;;8.30;99.90;;;;;;6210890;23;20429;-82
2023/01/13 06:26:01;;;;;;;41.28;5.47;;;8.30;99.90;;;;;;6208175;23;20047;-83
2023/01/13 06:28:26;;;;;;;34.85;5.72;;;8.20;99.90;;;;;;6214646;23;20024;-82
2023/01/13 06:30:56;;;;;;;33.58;4.68;;;8.30;99.90;;;;;;6240951;23;20012;-88
2023/01/13 06:33:32;;;;;;;35.58;5.55;;;8.40;99.90;;;;;;6214415;23;20016;-89
2023/01/13 06:36:03;;;;;;;40.10;5.63;;;8.20;99.90;;;;;;6215038;23;20012;-85
2023/01/13 06:38:33;;;;;;;34.17;5.60;;;8.40;99.90;;;;;;6214833;23;20012;-85
2023/01/13 06:40:58;;;;;;;39.10;5.00;;;8.30;99.90;;;;;;6189140;23;20055;-86
2023/01/13 06:43:24;;;;;;;33.72;4.90;;;8.30;99.90;;;;;;6242055;23;20020;-87
2023/01/13 06:45:52;;;;;;;32.95;5.32;;;8.30;99.90;;;;;;6242298;23;20015;-86
2023/01/13 06:48:22;;;;;;;38.50;5.28;;;8.20;99.90;;;;;;6216053;23;20017;-84
2023/01/13 06:50:47;;;;;;;44.00;5.72;;;8.00;99.90;;;;;;6191035;23;20044;-83
2023/01/13 06:53:13;;;;;;;38.05;5.13;;;8.00;99.90;;;;;;6190527;23;20392;-87
2023/01/13 06:56:16;;;;;;;31.52;4.90;;;7.80;99.90;;;;;;6214299;23;20103;-85
2023/01/13 06:58:42;;;;;;;26.80;4.65;;;7.80;99.90;;;;;;6188775;23;20023;-84
2023/01/13 07:01:07;;;;;;;38.00;4.90;;;7.70;99.90;;;;;;6214698;23;20094;-85
2023/01/13 07:03:33;;;;;;;26.20;4.43;;;7.80;99.90;;;;;;6215774;23;20087;-87
2023/01/13 07:06:00;;;;;;;35.72;4.53;;;7.80;99.90;;;;;;6216681;23;20020;-85
2023/01/13 07:08:26;;;;;;;40.63;5.00;;;7.70;99.90;;;;;;6192598;23;20527;-83
2023/01/13 07:17:02;;;;;;;40.22;5.03;;;7.60;99.90;;;;;;6215259;23;20020;-86
2023/01/13 07:19:28;;;;;;;34.70;4.65;;;7.40;99.90;;;;;;6214624;23;20114;-85
2023/01/13 07:21:53;;;;;;;29.27;4.90;;;7.60;99.90;;;;;;6189644;23;20087;-85
2023/01/13 07:24:22;;;;;;;30.42;4.57;;;7.60;99.90;;;;;;6190916;23;20008;-84
2023/01/13 07:26:51;;;;;;;33.10;4.75;;;7.40;99.90;;;;;;6188670;22;20424;-83
2023/01/13 07:29:16;;;;;;;30.63;4.80;;;7.60;99.90;;;;;;6213290;23;20111;-83
2023/01/13 07:31:42;;;;;;;32.17;5.03;;;7.50;99.90;;;;;;6189129;23;20100;-86
2023/01/13 07:34:08;;;;;;;34.67;4.97;;;7.20;99.90;;;;;;6215770;23;20050;-87
2023/01/13 07:36:34;;;;;;;33.90;4.95;;;7.50;99.90;;;;;;6215483;23;20016;-87
2023/01/13 07:39:00;;;;;;;32.75;5.43;;;7.30;99.90;;;;;;6213791;23;20381;-87
2023/01/13 07:44:10;;;;;;;32.30;4.22;;;7.30;99.90;;;;;;6241847;23;20074;-86
2023/01/13 07:46:36;;;;;;;40.55;5.25;;;7.10;99.90;;;;;;6190275;23;20012;-87
2023/01/13 07:49:04;;;;;;;38.67;5.32;;;7.40;99.90;;;;;;6215829;23;20051;-83
2023/01/13 07:51:29;;;;;;;36.58;4.90;;;7.30;99.90;;;;;;6190358;23;20470;-84
2023/01/13 07:53:55;;;;;;;34.50;4.68;;;7.10;99.90;;;;;;6190758;23;20012;-84
2023/01/13 07:56:21;;;;;;;39.65;5.00;;;7.10;99.90;;;;;;6212556;23;20019;-85
2023/01/13 07:58:49;;;;;;;47.70;6.40;;;7.10;99.90;;;;;;6212082;23;20016;-87
2023/01/13 08:01:16;;;;;;;40.35;5.43;;;7.30;99.90;;;;;;6187854;23;20081;-86
2023/01/13 08:03:42;;;;;;;43.03;5.18;;;7.20;99.90;;;;;;6189567;23;20432;-84
2023/01/13 08:06:09;;;;;;;47.13;7.07;;;7.30;99.90;;;;;;6198481;23;20016;-89
2023/01/13 08:08:35;;;;;;;43.53;5.47;;;7.50;99.90;;;;;;6217139;23;20394;-86
2023/01/13 08:11:03;;;;;;;35.40;5.10;;;7.50;99.90;;;;;;6187867;23;20016;-83
2023/01/13 08:13:29;;;;;;;43.78;6.05;;;7.50;99.90;;;;;;6214278;23;20073;-88
2023/01/13 08:16:04;;;;;;;39.10;6.68;;;7.40;99.90;;;;;;6189371;23;20073;-86
2023/01/13 08:18:31;;;;;;;37.08;5.32;;;7.50;99.90;;;;;;6244930;23;20066;-86
2023/01/13 08:21:02;;;;;;;34.72;5.25;;;7.60;99.90;;;;;;6213781;23;20016;-83
2023/01/13 08:23:28;;;;;;;40.70;5.43;;;7.40;99.90;;;;;;6215680;23;20807;-86
2023/01/13 08:25:54;;;;;;;43.00;5.38;;;7.60;99.90;;;;;;6214893;23;20022;-84
2023/01/13 08:28:19;;;;;;;37.40;4.93;;;7.60;99.90;;;;;;6190229;23;20130;-86
2023/01/13 08:30:45;;;;;;;28.05;4.57;;;7.70;99.90;;;;;;6191677;23;20016;-85
2023/01/13 08:33:11;;;;;;;34.53;5.50;;;7.50;99.90;;;;;;6189468;23;20023;-85
2023/01/13 08:35:41;;;;;;;38.65;6.47;;;7.70;99.90;;;;;;6220480;23;20027;-86
2023/01/13 08:38:07;;;;;;;46.75;5.75;;;7.70;99.90;;;;;;6193614;23;20046;-85
2023/01/13 08:40:34;;;;;;;33.97;5.25;;;7.70;99.90;;;;;;6192028;23;20020;-85
2023/01/13 08:43:00;;;;;;;34.05;5.50;;;7.60;99.90;;;;;;6190191;23;20016;-84
2023/01/13 08:45:25;;;;;;;43.30;5.85;;;7.80;99.90;;;;;;6216380;23;20081;-82
2023/01/13 08:47:51;;;;;;;33.50;5.13;;;7.90;99.90;;;;;;6216490;23;20024;-84
2023/01/13 08:50:18;;;;;;;34.95;5.60;;;7.90;99.90;;;;;;6189915;23;20012;-86
2023/01/13 08:52:44;;;;;;;39.70;5.65;;;7.90;99.90;;;;;;6214712;23;20444;-85
2023/01/13 08:55:10;;;;;;;35.05;5.43;;;7.90;99.90;;;;;;6212293;23;20091;-82
2023/01/13 08:57:36;;;;;;;44.67;5.80;;;7.90;99.90;;;;;;6188887;23;20027;-85
2023/01/13 09:00:05;;;;;;;41.75;5.65;;;8.00;99.90;;;;;;6215276;23;20016;-85
2023/01/13 09:02:30;;;;;;;33.22;5.55;;;7.80;99.90;;;;;;6190677;23;20298;-84
2023/01/13 09:04:56;;;;;;;45.05;6.00;;;7.90;99.90;;;;;;6217349;23;20099;-85
2023/01/13 09:07:22;;;;;;;41.40;5.95;;;7.70;99.90;;;;;;6218151;23;20088;-89
2023/01/13 09:09:47;;;;;;;32.00;4.78;;;7.80;99.90;;;;;;6217288;23;20012;-83
2023/01/13 09:14:59;;;;;;;41.75;5.65;;;7.80;99.90;;;;;;6245119;23;20038;-83
2023/01/13 09:17:26;;;;;;;35.60;5.03;;;7.50;99.90;;;;;;6192285;23;20023;-83
2023/01/13 09:19:52;;;;;;;36.53;5.53;;;7.50;99.90;;;;;;6214331;23;20359;-85
2023/01/13 09:22:19;;;;;;;29.40;4.53;;;7.60;99.90;;;;;;6215374;23;20008;-85
2023/01/13 09:24:45;;;;;;;30.45;4.22;;;7.60;99.90;;;;;;6195567;23;20020;-85
2023/01/13 09:27:12;;;;;;;33.00;4.53;;;7.50;99.90;;;;;;6195081;22;20019;-83
2023/01/13 09:29:38;;;;;;;31.95;5.03;;;7.70;99.90;;;;;;6199336;23;20076;-83
2023/01/13 09:32:05;;;;;;;33.15;4.40;;;7.40;99.90;;;;;;6226160;23;20045;-81
2023/01/13 09:37:16;;;;;;;26.42;3.90;;;7.50;99.90;;;;;;6216604;23;20510;-85
2023/01/13 09:39:42;;;;;;;35.47;4.90;;;7.40;99.90;;;;;;6218105;23;20016;-83
2023/01/13 09:45:22;;;;;;;40.60;5.07;;;7.30;99.90;;;;;;6217185;23;20113;-85
2023/01/13 09:48:19;;;;;;;36.70;5.03;;;7.40;99.90;;;;;;6189393;23;20114;-85
2023/01/13 09:50:59;;;;;;;38.35;5.43;;;7.50;99.90;;;;;;6041067;23;20326;-85
2023/01/13 09:53:29;;;;;;;37.13;4.88;;;7.50;99.90;;;;;;6065571;23;20395;-82
2023/01/13 09:55:58;;;;;;;40.38;5.53;;;7.60;99.90;;;;;;6092303;23;20014;-83
2023/01/13 09:58:24;;;;;;;44.90;5.13;;;7.50;99.90;;;;;;6067298;23;20022;-82
2023/01/13 10:01:25;;;;;;;39.05;5.35;;;7.30;99.90;;;;;;6043582;23;20014;-84
2023/01/13 10:03:52;;;;;;;47.17;5.35;;;7.60;99.90;;;;;;5980512;24;20016;-83
2023/01/13 10:06:25;;;;;;;36.90;4.90;;;7.20;99.90;;;;;;5967255;24;20540;-84
2023/01/13 10:08:51;;;;;;;37.58;5.03;;;7.20;99.90;;;;;;5975321;24;20020;-84
2023/01/13 10:14:18;;;;;;;34.83;4.43;;;7.20;99.90;;;;;;5978955;24;20085;-81
2023/01/13 10:16:59;;;;;;;32.88;4.88;;;7.30;99.90;;;;;;5931080;24;20046;-85
2023/01/13 10:19:30;;;;;;;31.25;4.75;;;7.50;99.90;;;;;;5975905;24;20125;-81
2023/01/13 10:22:08;;;;;;;30.50;4.88;;;7.70;99.90;;;;;;5931764;24;20209;-85
2023/01/13 10:24:54;;;;;;;29.45;5.20;;;7.70;99.90;;;;;;5977551;24;20484;-84
2023/01/13 10:27:33;;;;;;;30.20;4.85;;;7.60;99.90;;;;;;5965527;23;20025;-82
2023/01/13 10:30:20;;;;;;;30.15;4.70;;;7.80;99.90;;;;;;6067524;23;20105;-85
2023/01/13 10:32:52;;;;;;;31.30;4.60;;;7.80;99.90;;;;;;5925226;24;20017;-83
2023/01/13 10:35:48;;;;;;;25.48;3.70;;;7.50;99.90;;;;;;5925632;24;20397;-84
2023/01/13 10:38:43;;;;;;;34.80;4.97;;;7.60;99.90;;;;;;5944934;24;20127;-85
2023/01/13 10:41:14;;;;;;;34.93;4.67;;;7.90;99.90;;;;;;6024209;23;20021;-84
2023/01/13 10:43:55;;;;;;;26.48;4.25;;;7.70;99.90;;;;;;6094413;23;20019;-84
2023/01/13 10:46:21;;;;;;;29.88;4.53;;;7.80;99.90;;;;;;6067359;23;20026;-82
2023/01/13 10:49:02;;;;;;;34.72;5.43;;;8.00;99.90;;;;;;6068285;23;20014;-86
2023/01/13 10:51:36;;;;;;;39.88;5.47;;;8.00;99.90;;;;;;6071038;23;20069;-82
2023/01/13 10:54:13;;;;;;;41.88;5.43;;;8.00;99.90;;;;;;6097033;23;20014;-83
2023/01/13 10:56:43;;;;;;;31.38;4.43;;;8.00;99.90;;;;;;6091448;23;20097;-87
2023/01/13 10:59:26;;;;;;;34.20;4.57;;;8.00;99.90;;;;;;6067810;23;20024;-82
2023/01/13 11:02:32;;;;;;;29.33;4.90;;;7.90;99.90;;;;;;6063463;23;20092;-85
2023/01/13 11:05:07;;;;;;;35.45;5.35;;;7.90;99.90;;;;;;6006504;23;20111;-86
2023/01/13 11:07:37;;;;;;;33.42;4.90;;;7.90;99.90;;;;;;5982089;23;20024;-83
2023/01/13 11:10:28;;;;;;;32.35;4.65;;;7.90;99.90;;;;;;6005251;23;20021;-86
2023/01/13 11:13:04;;;;;;;37.95;5.05;;;8.10;99.90;;;;;;6013616;23;20021;-81
2023/01/13 11:15:48;;;;;;;34.50;4.47;;;8.00;99.90;;;;;;6035695;23;20082;-82
2023/01/13 11:18:21;;;;;;;29.13;4.00;;;7.90;99.90;;;;;;6034108;23;20038;-86
2023/01/13 11:20:49;;;;;;;28.73;4.70;;;8.00;99.90;;;;;;6033668;23;20022;-85
2023/01/13 11:23:33;;;;;;;38.35;4.68;;;7.90;99.90;;;;;;6037417;23;20052;-86
2023/01/13 11:30:01;;;;;;;27.30;4.10;;;8.10;99.90;;;;;;6059778;23;20527;-87
2023/01/13 11:32:33;;;;;;;34.95;4.55;;;7.90;99.90;;;;;;6013187;23;20359;-84
2023/01/13 11:35:18;;;;;;;30.38;4.10;;;8.10;99.90;;;;;;6036247;23;20097;-87
2023/01/13 11:37:52;;;;;;;31.23;4.23;;;8.00;99.90;;;;;;6034203;23;20439;-83
2023/01/13 11:40:31;;;;;;;29.02;4.40;;;8.00;99.90;;;;;;6112343;23;20735;-87
2023/01/13 11:43:12;;;;;;;24.48;3.83;;;8.30;99.90;;;;;;6211352;23;20019;-85
2023/01/13 11:45:45;;;;;;;22.80;3.65;;;8.20;99.90;;;;;;6188283;23;20012;-88
2023/01/13 11:48:21;;;;;;;31.98;4.43;;;8.60;99.90;;;;;;6210430;23;20021;-85
2023/01/13 11:51:12;;;;;;;28.35;3.95;;;8.50;99.90;;;;;;6186860;23;20373;-85
2023/01/13 11:53:56;;;;;;;26.40;3.95;;;8.30;99.90;;;;;;6187713;23;20095;-87
2023/01/13 11:57:05;;;;;;;24.30;4.30;;;8.40;99.90;;;;;;6215133;23;20038;-88
2023/01/13 12:00:08;;;;;;;24.88;3.90;;;8.50;99.90;;;;;;6092772;23;20474;-84
2023/01/13 12:02:46;;;;;;;27.38;4.07;;;8.30;99.90;;;;;;6043947;23;20475;-84
2023/01/13 12:05:22;;;;;;;21.50;3.40;;;8.30;99.90;;;;;;6065772;23;20030;-84
2023/01/13 12:08:08;;;;;;;15.48;2.92;;;8.20;99.90;;;;;;6064968;23;20102;-85
2023/01/13 12:10:55;;;;;;;20.60;3.63;;;8.30;99.90;;;;;;6065918;23;20308;-90
2023/01/13 12:13:29;;;;;;;28.85;4.10;;;8.30;99.90;;;;;;6042289;23;20011;-85
2023/01/13 12:16:13;;;;;;;28.23;4.10;;;8.40;99.90;;;;;;6066126;23;20014;-88
2023/01/13 12:18:53;;;;;;;24.33;3.80;;;8.40;99.90;;;;;;6047505;23;20025;-86
2023/01/13 12:21:57;;;;;;;23.65;3.65;;;8.40;99.90;;;;;;6090570;23;20018;-84
2023/01/13 12:24:46;;;;;;;24.35;3.70;;;8.50;99.90;;;;;;5929846;24;20016;-83
2023/01/13 12:27:50;;;;;;;21.05;3.42;;;8.50;99.90;;;;;;5950873;24;20020;-84
2023/01/13 12:30:30;;;;;;;27.00;3.60;;;8.60;99.90;;;;;;5948822;24;20028;-84
2023/01/13 12:33:14;;;;;;;19.90;3.47;;;8.60;99.90;;;;;;5977918;24;20016;-84
2023/01/13 12:36:00;;;;;;;19.17;3.75;;;8.70;99.90;;;;;;5993449;23;20118;-84
2023/01/13 12:38:25;;;;;;;21.45;3.22;;;8.80;99.90;;;;;;6089287;23;20053;-80
2023/01/13 12:41:01;;;;;;;24.33;3.78;;;8.90;99.90;;;;;;6065861;23;20386;-82
2023/01/13 12:46:17;;;;;;;25.33;3.83;;;8.90;99.90;;;;;;6064356;23;20018;-81
2023/01/13 12:49:06;;;;;;;30.73;3.90;;;8.90;99.90;;;;;;6065060;23;20097;-85
2023/01/13 12:51:56;;;;;;;19.55;3.45;;;8.70;99.90;;;;;;6065519;23;20023;-85
2023/01/13 12:54:40;;;;;;;17.63;3.20;;;8.90;99.90;;;;;;6066104;23;20093;-87
2023/01/13 12:57:25;;;;;;;20.85;2.92;;;8.80;99.90;;;;;;6065453;23;20367;-82
2023/01/13 13:00:03;;;;;;;15.23;3.25;;;8.90;99.90;;;;;;6065798;23;20218;-84
2023/01/13 13:02:33;;;;;;;24.05;3.65;;;8.90;99.90;;;;;;6183999;23;20095;-85
2023/01/13 13:05:22;;;;;;;16.77;2.83;;;8.90;99.90;;;;;;6183815;23;20017;-86
2023/01/13 13:08:11;;;;;;;20.80;3.42;;;9.00;99.90;;;;;;6184426;23;20063;-82
2023/01/13 13:10:42;;;;;;;12.10;2.88;;;9.00;99.90;;;;;;6185579;23;20024;-83
2023/01/13 13:13:38;;;;;;;20.52;3.15;;;9.00;99.90;;;;;;6208725;23;20409;-83
2023/01/13 13:16:44;;;;;;;22.33;3.20;;;9.00;99.90;;;;;;6207137;23;20083;-83
2023/01/13 13:19:21;;;;;;;21.63;3.25;;;8.90;99.90;;;;;;6193172;23;20429;-84
2023/01/13 13:22:12;;;;;;;21.08;3.08;;;8.90;99.90;;;;;;6211016;23;20086;-84
2023/01/13 13:24:58;;;;;;;14.57;2.80;;;9.00;99.90;;;;;;6208870;23;20537;-84
2023/01/13 13:27:30;;;;;;;19.30;3.10;;;9.00;99.90;;;;;;6212270;23;20016;-85
2023/01/13 13:30:10;;;;;;;24.00;3.33;;;9.00;99.90;;;;;;6186620;23;20440;-83
2023/01/13 13:32:54;;;;;;;19.27;2.78;;;8.90;99.90;;;;;;6211694;23;20020;-83
2023/01/13 13:35:51;;;;;;;17.27;2.83;;;8.70;99.90;;;;;;6213137;23;20083;-85
2023/01/13 13:47:09;;;;;;;19.10;3.35;;;8.50;99.90;;;;;;6212006;23;20021;-82
2023/01/13 13:49:42;;;;;;;22.15;3.55;;;8.50;99.90;;;;;;6211491;23;20142;-82
2023/01/13 13:52:35;;;;;;;19.85;3.05;;;8.60;99.90;;;;;;6185601;23;20047;-82
2023/01/13 13:55:18;;;;;;;19.08;3.42;;;8.70;99.90;;;;;;6210702;23;20016;-83
2023/01/13 13:57:46;;;;;;;14.27;2.85;;;8.60;99.90;;;;;;6212090;23;20082;-82
2023/01/13 14:00:26;;;;;;;17.15;2.95;;;8.80;99.90;;;;;;6185021;23;20092;-82
2023/01/13 14:02:55;;;;;;;18.50;2.90;;;8.80;99.90;;;;;;6184614;23;20102;-82
2023/01/13 14:05:30;;;;;;;19.80;3.40;;;8.70;99.90;;;;;;6183455;23;20401;-83
2023/01/13 14:08:05;;;;;;;24.38;4.20;;;8.70;99.90;;;;;;6184067;23;20017;-83
2023/01/13 14:10:34;;;;;;;16.70;2.85;;;8.70;99.90;;;;;;6208944;23;20013;-83
2023/01/13 14:13:36;;;;;;;20.65;3.33;;;8.60;99.90;;;;;;6207548;23;20012;-85
2023/01/13 14:16:05;;;;;;;17.33;3.10;;;8.50;99.90;;;;;;6183908;23;20019;-83
2023/01/13 14:18:46;;;;;;;21.27;2.95;;;8.60;99.90;;;;;;6207056;23;20021;-84
2023/01/13 14:21:21;;;;;;;18.35;3.25;;;8.70;99.90;;;;;;6182551;23;20072;-85
2023/01/13 14:24:12;;;;;;;25.42;3.33;;;8.60;99.90;;;;;;6157196;23;20028;-83